Terminal Aerodrome Forecast
Issued by NWS Chicago, IL

Home | Current Version | Previous Version | Graphics & Text | Print | Product List | Glossary On
Versions: 1 2 3 4 5 6 7 8 9 10 11 12 13 14 15 16 17 18 19 20 21 22 23 24 25 26 27 28 29 30 31 32 33
676
FTUS43 KLOT 211949 AAA
TAFRFD
TAF AMD
KRFD 211949Z 2120/2218 19012G19KT P6SM FEW025 SCT200
     FM220100 20009KT P6SM FEW020 BKN120
     FM221200 25008KT P6SM BKN040 BKN120 PROB30 2212/2216 4SM TSRA
      BKN030CB=

USA.gov is the U.S. government's official web portal to all federal, state and local government web resources and services.